sensor_id;sensor_type;location;lat;lon;timestamp;pressure;altitude;pressure_sealevel;temperature;humidity
39739;BME280;25422;48.286;8.484;2023-07-08T00:00:19;94280.19;;;14.39;100.00
39739;BME280;25422;48.286;8.484;2023-07-08T00:02:51;94277.63;;;14.24;100.00
39739;BME280;25422;48.286;8.484;2023-07-08T00:05:18;94284.03;;;14.14;100.00
39739;BME280;25422;48.286;8.484;2023-07-08T00:07:44;94292.56;;;13.95;100.00
39739;BME280;25422;48.286;8.484;2023-07-08T00:10:14;94280.06;;;13.82;100.00
39739;BME280;25422;48.286;8.484;2023-07-08T00:12:40;94278.63;;;13.79;100.00
39739;BME280;25422;48.286;8.484;2023-07-08T00:15:06;94281.31;;;13.86;100.00
39739;BME280;25422;48.286;8.484;2023-07-08T00:17:31;94273.69;;;13.91;100.00
39739;BME280;25422;48.286;8.484;2023-07-08T00:19:56;94262.97;;;13.93;100.00
39739;BME280;25422;48.286;8.484;2023-07-08T00:22:22;94269.88;;;13.94;100.00
39739;BME280;25422;48.286;8.484;2023-07-08T00:24:50;94271.91;;;13.92;100.00
39739;BME280;25422;48.286;8.484;2023-07-08T00:27:16;94268.63;;;13.90;100.00
39739;BME280;25422;48.286;8.484;2023-07-08T00:29:41;94269.47;;;13.75;100.00
39739;BME280;25422;48.286;8.484;2023-07-08T00:32:13;94269.19;;;13.63;100.00
39739;BME280;25422;48.286;8.484;2023-07-08T00:34:39;94266.75;;;13.62;100.00
39739;BME280;25422;48.286;8.484;2023-07-08T00:37:04;94267.47;;;13.56;100.00
39739;BME280;25422;48.286;8.484;2023-07-08T00:39:31;94257.34;;;13.53;100.00
39739;BME280;25422;48.286;8.484;2023-07-08T00:41:58;94254.78;;;13.59;100.00
39739;BME280;25422;48.286;8.484;2023-07-08T00:44:25;94256.47;;;13.67;100.00
39739;BME280;25422;48.286;8.484;2023-07-08T00:47:04;94258.28;;;13.66;100.00
39739;BME280;25422;48.286;8.484;2023-07-08T00:49:52;94250.59;;;13.65;100.00
39739;BME280;25422;48.286;8.484;2023-07-08T00:52:25;94262.97;;;13.71;100.00
39739;BME280;25422;48.286;8.484;2023-07-08T00:54:54;94259.97;;;13.53;100.00
39739;BME280;25422;48.286;8.484;2023-07-08T00:57:21;94264.13;;;13.32;100.00
39739;BME280;25422;48.286;8.484;2023-07-08T00:59:53;94265.25;;;13.23;100.00
39739;BME280;25422;48.286;8.484;2023-07-08T01:02:22;94266.63;;;13.04;100.00
39739;BME280;25422;48.286;8.484;2023-07-08T01:04:54;94270.69;;;12.91;100.00
39739;BME280;25422;48.286;8.484;2023-07-08T01:07:22;94272.13;;;12.94;100.00
39739;BME280;25422;48.286;8.484;2023-07-08T01:09:57;94268.53;;;12.95;100.00
39739;BME280;25422;48.286;8.484;2023-07-08T01:12:29;94272.59;;;12.97;100.00
39739;BME280;25422;48.286;8.484;2023-07-08T01:14:57;94271.34;;;12.78;100.00
39739;BME280;25422;48.286;8.484;2023-07-08T01:17:25;94270.44;;;12.71;100.00
39739;BME280;25422;48.286;8.484;2023-07-08T01:19:58;94272.78;;;12.66;100.00
39739;BME280;25422;48.286;8.484;2023-07-08T01:22:24;94281.09;;;12.55;100.00
39739;BME280;25422;48.286;8.484;2023-07-08T01:24:49;94277.97;;;12.36;100.00
39739;BME280;25422;48.286;8.484;2023-07-08T01:27:16;94274.00;;;12.40;100.00
39739;BME280;25422;48.286;8.484;2023-07-08T01:29:44;94274.19;;;12.39;100.00
39739;BME280;25422;48.286;8.484;2023-07-08T01:32:13;94275.19;;;12.38;100.00
39739;BME280;25422;48.286;8.484;2023-07-08T01:34:43;94281.69;;;12.42;100.00
39739;BME280;25422;48.286;8.484;2023-07-08T01:37:36;94292.91;;;12.51;100.00
39739;BME280;25422;48.286;8.484;2023-07-08T01:42:46;94282.38;;;12.59;100.00
39739;BME280;25422;48.286;8.484;2023-07-08T01:45:14;94280.09;;;12.71;100.00
39739;BME280;25422;48.286;8.484;2023-07-08T01:47:46;94286.28;;;12.78;100.00
39739;BME280;25422;48.286;8.484;2023-07-08T01:50:13;94274.66;;;12.87;100.00
39739;BME280;25422;48.286;8.484;2023-07-08T01:52:38;94273.16;;;12.93;100.00
39739;BME280;25422;48.286;8.484;2023-07-08T01:55:05;94269.97;;;12.97;100.00
39739;BME280;25422;48.286;8.484;2023-07-08T01:57:31;94283.81;;;13.21;100.00
39739;BME280;25422;48.286;8.484;2023-07-08T01:59:56;94269.84;;;13.21;100.00
39739;BME280;25422;48.286;8.484;2023-07-08T02:02:22;94269.31;;;13.25;100.00
39739;BME280;25422;48.286;8.484;2023-07-08T02:04:49;94266.50;;;13.27;100.00
39739;BME280;25422;48.286;8.484;2023-07-08T02:07:15;94269.13;;;13.27;100.00
39739;BME280;25422;48.286;8.484;2023-07-08T02:09:40;94265.69;;;13.26;100.00
39739;BME280;25422;48.286;8.484;2023-07-08T02:12:07;94270.31;;;13.24;100.00
39739;BME280;25422;48.286;8.484;2023-07-08T02:14:32;94266.06;;;13.08;100.00
39739;BME280;25422;48.286;8.484;2023-07-08T02:16:57;94269.78;;;12.84;100.00
39739;BME280;25422;48.286;8.484;2023-07-08T02:19:24;94257.94;;;12.73;100.00
39739;BME280;25422;48.286;8.484;2023-07-08T02:21:49;94262.56;;;12.71;100.00
39739;BME280;25422;48.286;8.484;2023-07-08T02:24:17;94257.50;;;12.70;100.00
39739;BME280;25422;48.286;8.484;2023-07-08T02:26:42;94256.94;;;12.74;100.00
39739;BME280;25422;48.286;8.484;2023-07-08T02:29:08;94254.78;;;12.78;100.00
39739;BME280;25422;48.286;8.484;2023-07-08T02:31:34;94258.31;;;12.85;100.00
39739;BME280;25422;48.286;8.484;2023-07-08T02:33:59;94245.09;;;12.78;100.00
39739;BME280;25422;48.286;8.484;2023-07-08T02:36:27;94252.31;;;12.61;100.00
39739;BME280;25422;48.286;8.484;2023-07-08T02:38:52;94251.59;;;12.53;100.00
39739;BME280;25422;48.286;8.484;2023-07-08T02:41:18;94255.00;;;12.53;100.00
39739;BME280;25422;48.286;8.484;2023-07-08T02:43:43;94250.22;;;12.57;100.00
39739;BME280;25422;48.286;8.484;2023-07-08T02:46:09;94253.41;;;12.67;100.00
39739;BME280;25422;48.286;8.484;2023-07-08T02:48:34;94250.88;;;12.74;100.00
39739;BME280;25422;48.286;8.484;2023-07-08T02:51:01;94249.97;;;12.81;100.00
39739;BME280;25422;48.286;8.484;2023-07-08T02:53:27;94250.53;;;12.77;100.00
39739;BME280;25422;48.286;8.484;2023-07-08T02:55:52;94255.94;;;12.75;100.00
39739;BME280;25422;48.286;8.484;2023-07-08T02:58:17;94254.31;;;12.74;100.00
39739;BME280;25422;48.286;8.484;2023-07-08T03:00:43;94250.34;;;12.78;100.00
39739;BME280;25422;48.286;8.484;2023-07-08T03:03:08;94252.41;;;12.83;100.00
39739;BME280;25422;48.286;8.484;2023-07-08T03:05:33;94257.31;;;12.86;100.00
39739;BME280;25422;48.286;8.484;2023-07-08T03:07:59;94258.47;;;12.84;100.00
39739;BME280;25422;48.286;8.484;2023-07-08T03:10:25;94255.31;;;12.73;100.00
39739;BME280;25422;48.286;8.484;2023-07-08T03:12:50;94265.19;;;12.71;100.00
39739;BME280;25422;48.286;8.484;2023-07-08T03:15:16;94257.94;;;12.73;100.00
39739;BME280;25422;48.286;8.484;2023-07-08T03:17:41;94256.84;;;12.82;100.00
39739;BME280;25422;48.286;8.484;2023-07-08T03:20:08;94253.75;;;12.79;100.00
39739;BME280;25422;48.286;8.484;2023-07-08T03:22:35;94261.91;;;12.69;100.00
39739;BME280;25422;48.286;8.484;2023-07-08T03:25:00;94261.00;;;12.62;100.00
39739;BME280;25422;48.286;8.484;2023-07-08T03:27:26;94262.56;;;12.56;100.00
39739;BME280;25422;48.286;8.484;2023-07-08T03:29:51;94275.28;;;12.44;100.00
39739;BME280;25422;48.286;8.484;2023-07-08T03:32:17;94277.25;;;12.42;100.00
39739;BME280;25422;48.286;8.484;2023-07-08T03:34:42;94281.53;;;12.43;100.00
39739;BME280;25422;48.286;8.484;2023-07-08T03:37:09;94275.56;;;12.50;100.00
39739;BME280;25422;48.286;8.484;2023-07-08T03:39:35;94284.63;;;12.62;100.00
39739;BME280;25422;48.286;8.484;2023-07-08T03:42:01;94279.41;;;12.77;100.00
39739;BME280;25422;48.286;8.484;2023-07-08T03:44:27;94285.44;;;12.92;100.00
39739;BME280;25422;48.286;8.484;2023-07-08T03:46:52;94293.97;;;13.09;100.00
39739;BME280;25422;48.286;8.484;2023-07-08T03:49:20;94308.75;;;12.95;100.00
39739;BME280;25422;48.286;8.484;2023-07-08T03:51:49;94317.16;;;12.91;100.00
39739;BME280;25422;48.286;8.484;2023-07-08T03:54:18;94323.41;;;13.05;100.00
39739;BME280;25422;48.286;8.484;2023-07-08T03:56:45;94321.41;;;13.22;100.00
39739;BME280;25422;48.286;8.484;2023-07-08T03:59:11;94320.13;;;13.32;100.00
39739;BME280;25422;48.286;8.484;2023-07-08T04:01:37;94315.81;;;13.40;100.00
39739;BME280;25422;48.286;8.484;2023-07-08T04:04:12;94327.56;;;13.44;100.00
39739;BME280;25422;48.286;8.484;2023-07-08T04:06:38;94323.16;;;13.44;100.00
39739;BME280;25422;48.286;8.484;2023-07-08T04:09:03;94310.25;;;13.49;100.00
39739;BME280;25422;48.286;8.484;2023-07-08T04:11:28;94316.69;;;13.62;100.00
39739;BME280;25422;48.286;8.484;2023-07-08T04:13:54;94320.19;;;13.69;100.00
39739;BME280;25422;48.286;8.484;2023-07-08T04:16:25;94317.00;;;13.74;100.00
39739;BME280;25422;48.286;8.484;2023-07-08T04:18:54;94329.84;;;13.83;100.00
39739;BME280;25422;48.286;8.484;2023-07-08T04:21:21;94337.00;;;13.90;100.00
39739;BME280;25422;48.286;8.484;2023-07-08T04:23:47;94340.44;;;13.90;100.00
39739;BME280;25422;48.286;8.484;2023-07-08T04:26:13;94341.19;;;13.84;100.00
39739;BME280;25422;48.286;8.484;2023-07-08T04:28:38;94346.16;;;13.94;100.00
39739;BME280;25422;48.286;8.484;2023-07-08T04:31:04;94347.03;;;14.01;100.00
39739;BME280;25422;48.286;8.484;2023-07-08T04:33:29;94349.06;;;14.21;100.00
39739;BME280;25422;48.286;8.484;2023-07-08T04:35:55;94354.94;;;14.44;100.00
39739;BME280;25422;48.286;8.484;2023-07-08T04:38:23;94350.72;;;14.65;100.00
39739;BME280;25422;48.286;8.484;2023-07-08T04:40:49;94355.91;;;14.87;100.00
39739;BME280;25422;48.286;8.484;2023-07-08T04:43:16;94354.59;;;14.76;100.00
39739;BME280;25422;48.286;8.484;2023-07-08T04:45:45;94366.59;;;14.57;100.00
39739;BME280;25422;48.286;8.484;2023-07-08T04:48:14;94367.03;;;14.60;100.00
39739;BME280;25422;48.286;8.484;2023-07-08T04:50:43;94364.72;;;14.72;100.00
39739;BME280;25422;48.286;8.484;2023-07-08T04:53:10;94349.66;;;14.88;100.00
39739;BME280;25422;48.286;8.484;2023-07-08T04:55:48;94346.09;;;15.02;100.00
39739;BME280;25422;48.286;8.484;2023-07-08T04:58:14;94342.19;;;15.26;100.00
39739;BME280;25422;48.286;8.484;2023-07-08T05:00:40;94356.34;;;15.54;100.00
39739;BME280;25422;48.286;8.484;2023-07-08T05:03:05;94350.50;;;15.72;100.00
39739;BME280;25422;48.286;8.484;2023-07-08T05:05:30;94352.59;;;15.76;100.00
39739;BME280;25422;48.286;8.484;2023-07-08T05:07:56;94363.88;;;15.63;100.00
39739;BME280;25422;48.286;8.484;2023-07-08T05:10:21;94373.41;;;15.64;100.00
39739;BME280;25422;48.286;8.484;2023-07-08T05:12:47;94372.75;;;15.56;100.00
39739;BME280;25422;48.286;8.484;2023-07-08T05:15:14;94372.38;;;15.59;100.00
39739;BME280;25422;48.286;8.484;2023-07-08T05:17:40;94375.06;;;15.65;100.00
39739;BME280;25422;48.286;8.484;2023-07-08T05:20:07;94372.75;;;15.97;100.00
39739;BME280;25422;48.286;8.484;2023-07-08T05:22:34;94378.72;;;16.26;100.00
39739;BME280;25422;48.286;8.484;2023-07-08T05:24:59;94375.50;;;16.38;100.00
39739;BME280;25422;48.286;8.484;2023-07-08T05:27:25;94377.13;;;16.45;100.00
39739;BME280;25422;48.286;8.484;2023-07-08T05:29:50;94375.94;;;16.55;100.00
39739;BME280;25422;48.286;8.484;2023-07-08T05:32:16;94380.19;;;16.56;100.00
39739;BME280;25422;48.286;8.484;2023-07-08T05:34:43;94380.41;;;16.54;100.00
39739;BME280;25422;48.286;8.484;2023-07-08T05:37:09;94373.09;;;16.63;100.00
39739;BME280;25422;48.286;8.484;2023-07-08T05:39:34;94375.34;;;16.73;100.00
39739;BME280;25422;48.286;8.484;2023-07-08T05:41:59;94371.09;;;16.85;100.00
39739;BME280;25422;48.286;8.484;2023-07-08T05:44:25;94369.88;;;17.08;100.00
39739;BME280;25422;48.286;8.484;2023-07-08T05:46:50;94370.28;;;17.18;100.00
39739;BME280;25422;48.286;8.484;2023-07-08T05:49:16;94366.41;;;17.27;100.00
39739;BME280;25422;48.286;8.484;2023-07-08T05:51:43;94358.66;;;17.32;100.00
39739;BME280;25422;48.286;8.484;2023-07-08T05:54:09;94366.59;;;17.39;100.00
39739;BME280;25422;48.286;8.484;2023-07-08T05:56:34;94371.44;;;17.49;100.00
39739;BME280;25422;48.286;8.484;2023-07-08T05:58:59;94363.28;;;17.57;100.00
39739;BME280;25422;48.286;8.484;2023-07-08T06:01:25;94356.13;;;17.64;100.00
39739;BME280;25422;48.286;8.484;2023-07-08T06:03:50;94365.25;;;17.75;100.00
39739;BME280;25422;48.286;8.484;2023-07-08T06:06:16;94357.50;;;17.74;100.00
39739;BME280;25422;48.286;8.484;2023-07-08T06:08:43;94360.56;;;17.77;100.00
39739;BME280;25422;48.286;8.484;2023-07-08T06:11:08;94356.09;;;17.71;100.00
39739;BME280;25422;48.286;8.484;2023-07-08T06:13:33;94365.25;;;17.75;100.00
39739;BME280;25422;48.286;8.484;2023-07-08T06:15:59;94377.03;;;17.79;100.00
39739;BME280;25422;48.286;8.484;2023-07-08T06:18:24;94374.19;;;17.74;100.00
39739;BME280;25422;48.286;8.484;2023-07-08T06:20:54;94373.00;;;17.70;100.00
39739;BME280;25422;48.286;8.484;2023-07-08T06:23:20;94376.44;;;17.77;100.00
39739;BME280;25422;48.286;8.484;2023-07-08T06:25:45;94373.78;;;17.84;100.00
39739;BME280;25422;48.286;8.484;2023-07-08T06:28:11;94372.53;;;17.93;100.00
39739;BME280;25422;48.286;8.484;2023-07-08T06:30:36;94364.75;;;18.05;100.00
39739;BME280;25422;48.286;8.484;2023-07-08T06:33:03;94360.97;;;18.26;100.00
39739;BME280;25422;48.286;8.484;2023-07-08T06:35:28;94364.25;;;18.53;100.00
39739;BME280;25422;48.286;8.484;2023-07-08T06:37:54;94369.25;;;19.00;100.00
39739;BME280;25422;48.286;8.484;2023-07-08T06:40:19;94365.53;;;19.27;100.00
39739;BME280;25422;48.286;8.484;2023-07-08T06:42:45;94367.78;;;19.48;100.00
39739;BME280;25422;48.286;8.484;2023-07-08T06:45:29;94372.56;;;19.58;100.00
39739;BME280;25422;48.286;8.484;2023-07-08T06:47:54;94369.34;;;19.56;100.00
39739;BME280;25422;48.286;8.484;2023-07-08T06:50:19;94376.03;;;19.59;100.00
39739;BME280;25422;48.286;8.484;2023-07-08T06:52:45;94388.50;;;19.95;100.00
39739;BME280;25422;48.286;8.484;2023-07-08T06:55:11;94386.31;;;19.92;100.00
39739;BME280;25422;48.286;8.484;2023-07-08T06:57:37;94381.03;;;20.23;100.00
39739;BME280;25422;48.286;8.484;2023-07-08T07:00:10;94374.44;;;20.74;100.00
39739;BME280;25422;48.286;8.484;2023-07-08T07:02:36;94374.34;;;21.40;100.00
39739;BME280;25422;48.286;8.484;2023-07-08T07:05:03;94355.34;;;21.84;100.00
39739;BME280;25422;48.286;8.484;2023-07-08T07:07:29;94366.56;;;22.27;99.23
39739;BME280;25422;48.286;8.484;2023-07-08T07:09:54;94369.38;;;22.20;99.02
39739;BME280;25422;48.286;8.484;2023-07-08T07:12:20;94375.59;;;22.26;96.67
39739;BME280;25422;48.286;8.484;2023-07-08T07:14:45;94375.81;;;22.65;92.46
39739;BME280;25422;48.286;8.484;2023-07-08T07:17:11;94373.78;;;22.72;92.89
39739;BME280;25422;48.286;8.484;2023-07-08T07:19:36;94388.25;;;22.76;88.42
39739;BME280;25422;48.286;8.484;2023-07-08T07:22:02;94384.63;;;23.28;85.91
39739;BME280;25422;48.286;8.484;2023-07-08T07:24:27;94373.38;;;23.65;79.65
39739;BME280;25422;48.286;8.484;2023-07-08T07:26:53;94383.38;;;23.75;71.34
39739;BME280;25422;48.286;8.484;2023-07-08T07:29:18;94376.25;;;23.98;66.57
39739;BME280;25422;48.286;8.484;2023-07-08T07:31:44;94373.94;;;24.29;66.24
39739;BME280;25422;48.286;8.484;2023-07-08T07:34:10;94380.63;;;24.81;56.70
39739;BME280;25422;48.286;8.484;2023-07-08T07:36:37;94381.34;;;25.03;53.13
39739;BME280;25422;48.286;8.484;2023-07-08T07:39:02;94373.53;;;25.29;53.09
39739;BME280;25422;48.286;8.484;2023-07-08T07:41:28;94386.28;;;25.49;50.71
39739;BME280;25422;48.286;8.484;2023-07-08T07:43:53;94387.44;;;24.94;50.95
39739;BME280;25422;48.286;8.484;2023-07-08T07:46:18;94382.63;;;25.28;50.47
39739;BME280;25422;48.286;8.484;2023-07-08T07:48:44;94386.25;;;25.44;50.63
39739;BME280;25422;48.286;8.484;2023-07-08T07:51:09;94385.94;;;25.83;49.53
39739;BME280;25422;48.286;8.484;2023-07-08T07:53:37;94385.25;;;27.18;44.13
39739;BME280;25422;48.286;8.484;2023-07-08T07:56:03;94384.59;;;28.14;42.41
39739;BME280;25422;48.286;8.484;2023-07-08T07:58:30;94394.28;;;29.15;38.95
39739;BME280;25422;48.286;8.484;2023-07-08T08:00:56;94404.56;;;29.77;37.06
39739;BME280;25422;48.286;8.484;2023-07-08T08:03:21;94395.81;;;29.61;37.21
39739;BME280;25422;48.286;8.484;2023-07-08T08:05:47;94396.16;;;28.80;38.36
39739;BME280;25422;48.286;8.484;2023-07-08T08:08:14;94396.44;;;28.18;40.42
39739;BME280;25422;48.286;8.484;2023-07-08T08:10:40;94398.16;;;27.26;41.09
39739;BME280;25422;48.286;8.484;2023-07-08T08:13:05;94395.34;;;26.54;43.48
39739;BME280;25422;48.286;8.484;2023-07-08T08:15:31;94400.47;;;26.56;43.61
39739;BME280;25422;48.286;8.484;2023-07-08T08:17:56;94398.47;;;27.46;42.03
39739;BME280;25422;48.286;8.484;2023-07-08T08:20:23;94400.22;;;29.12;39.31
39739;BME280;25422;48.286;8.484;2023-07-08T08:22:50;94393.72;;;30.55;35.04
39739;BME280;25422;48.286;8.484;2023-07-08T08:25:18;94394.00;;;31.95;33.58
39739;BME280;25422;48.286;8.484;2023-07-08T08:27:44;94398.25;;;31.36;34.06
39739;BME280;25422;48.286;8.484;2023-07-08T08:30:11;94385.56;;;30.98;34.17
39739;BME280;25422;48.286;8.484;2023-07-08T08:32:37;94395.88;;;31.15;33.13
39739;BME280;25422;48.286;8.484;2023-07-08T08:35:03;94387.88;;;30.23;34.00
39739;BME280;25422;48.286;8.484;2023-07-08T08:37:30;94385.44;;;30.27;34.48
39739;BME280;25422;48.286;8.484;2023-07-08T08:39:56;94396.94;;;32.41;30.50
39739;BME280;25422;48.286;8.484;2023-07-08T08:42:27;94401.31;;;31.95;31.32
39739;BME280;25422;48.286;8.484;2023-07-08T08:44:57;94392.16;;;30.05;34.72
39739;BME280;25422;48.286;8.484;2023-07-08T08:47:54;94401.38;;;29.06;36.37
39739;BME280;25422;48.286;8.484;2023-07-08T08:50:36;94406.50;;;29.42;35.41
39739;BME280;25422;48.286;8.484;2023-07-08T08:53:10;94400.31;;;30.49;32.98
39739;BME280;25422;48.286;8.484;2023-07-08T08:55:37;94404.34;;;30.89;33.60
39739;BME280;25422;48.286;8.484;2023-07-08T09:00:49;94403.91;;;32.70;30.49
39739;BME280;25422;48.286;8.484;2023-07-08T09:05:49;94404.25;;;32.91;29.30
39739;BME280;25422;48.286;8.484;2023-07-08T09:08:31;94414.34;;;34.04;27.82
39739;BME280;25422;48.286;8.484;2023-07-08T09:11:01;94409.09;;;34.16;27.33
39739;BME280;25422;48.286;8.484;2023-07-08T09:13:31;94409.88;;;33.54;28.33
39739;BME280;25422;48.286;8.484;2023-07-08T09:19:07;94401.56;;;30.32;32.85
39739;BME280;25422;48.286;8.484;2023-07-08T09:24:16;94403.25;;;32.22;29.30
39739;BME280;25422;48.286;8.484;2023-07-08T09:26:44;94395.19;;;31.89;29.44
39739;BME280;25422;48.286;8.484;2023-07-08T09:29:10;94388.16;;;32.72;27.97
39739;BME280;25422;48.286;8.484;2023-07-08T09:31:38;94392.31;;;33.51;26.79
39739;BME280;25422;48.286;8.484;2023-07-08T09:34:08;94395.78;;;33.43;27.42
39739;BME280;25422;48.286;8.484;2023-07-08T09:36:34;94388.22;;;31.55;29.55
39739;BME280;25422;48.286;8.484;2023-07-08T09:39:00;94397.03;;;32.36;29.08
39739;BME280;25422;48.286;8.484;2023-07-08T09:41:34;94399.63;;;33.73;26.68
39739;BME280;25422;48.286;8.484;2023-07-08T09:44:22;94400.84;;;32.99;27.23
39739;BME280;25422;48.286;8.484;2023-07-08T09:46:53;94395.81;;;34.06;26.25
39739;BME280;25422;48.286;8.484;2023-07-08T09:49:26;94400.53;;;33.23;26.13
39739;BME280;25422;48.286;8.484;2023-07-08T09:51:53;94400.97;;;33.17;26.61
39739;BME280;25422;48.286;8.484;2023-07-08T09:54:21;94401.94;;;32.34;28.25
39739;BME280;25422;48.286;8.484;2023-07-08T09:57:12;94401.50;;;31.85;29.18
39739;BME280;25422;48.286;8.484;2023-07-08T09:59:51;94404.63;;;30.69;30.98
39739;BME280;25422;48.286;8.484;2023-07-08T10:02:43;94398.50;;;30.39;31.54
39739;BME280;25422;48.286;8.484;2023-07-08T10:05:29;94391.94;;;31.07;30.04
39739;BME280;25422;48.286;8.484;2023-07-08T10:08:02;94391.50;;;32.13;29.75
39739;BME280;25422;48.286;8.484;2023-07-08T10:10:36;94397.59;;;33.11;27.18
39739;BME280;25422;48.286;8.484;2023-07-08T10:13:45;94391.28;;;31.82;29.96
39739;BME280;25422;48.286;8.484;2023-07-08T10:16:33;94390.19;;;30.35;32.62
39739;BME280;25422;48.286;8.484;2023-07-08T10:19:16;94394.66;;;30.45;32.23
39739;BME280;25422;48.286;8.484;2023-07-08T10:27:35;94394.69;;;31.02;30.87
39739;BME280;25422;48.286;8.484;2023-07-08T10:30:26;94395.50;;;31.22;31.01
39739;BME280;25422;48.286;8.484;2023-07-08T10:35:39;94393.06;;;32.70;27.55
39739;BME280;25422;48.286;8.484;2023-07-08T10:38:35;94391.78;;;32.11;29.15
39739;BME280;25422;48.286;8.484;2023-07-08T10:41:16;94387.94;;;31.71;29.39
39739;BME280;25422;48.286;8.484;2023-07-08T10:46:32;94394.84;;;30.73;30.88
39739;BME280;25422;48.286;8.484;2023-07-08T10:52:07;94393.06;;;31.86;29.12
39739;BME280;25422;48.286;8.484;2023-07-08T10:57:37;94399.59;;;30.38;33.22
39739;BME280;25422;48.286;8.484;2023-07-08T11:05:43;94396.59;;;32.01;28.42
39739;BME280;25422;48.286;8.484;2023-07-08T11:08:42;94387.47;;;32.52;29.42
39739;BME280;25422;48.286;8.484;2023-07-08T11:11:23;94397.31;;;32.20;28.98
39739;BME280;25422;48.286;8.484;2023-07-08T11:14:16;94393.16;;;32.92;29.17
39739;BME280;25422;48.286;8.484;2023-07-08T11:19:38;94382.81;;;30.41;31.52
39739;BME280;25422;48.286;8.484;2023-07-08T11:22:12;94388.13;;;30.27;34.02
39739;BME280;25422;48.286;8.484;2023-07-08T11:27:21;94385.06;;;30.77;31.38
39739;BME280;25422;48.286;8.484;2023-07-08T11:29:57;94390.53;;;30.28;33.07
39739;BME280;25422;48.286;8.484;2023-07-08T11:32:27;94387.25;;;30.07;32.78
39739;BME280;25422;48.286;8.484;2023-07-08T11:34:55;94398.56;;;30.96;31.56
39739;BME280;25422;48.286;8.484;2023-07-08T11:37:21;94390.09;;;30.65;30.84
39739;BME280;25422;48.286;8.484;2023-07-08T11:40:08;94382.06;;;30.78;30.94
39739;BME280;25422;48.286;8.484;2023-07-08T11:42:48;94378.66;;;31.91;28.96
39739;BME280;25422;48.286;8.484;2023-07-08T11:47:48;94376.75;;;30.73;31.26
39739;BME280;25422;48.286;8.484;2023-07-08T11:50:33;94379.38;;;30.59;31.50
39739;BME280;25422;48.286;8.484;2023-07-08T11:53:03;94379.81;;;30.42;31.72
39739;BME280;25422;48.286;8.484;2023-07-08T11:58:20;94379.56;;;31.53;29.49
39739;BME280;25422;48.286;8.484;2023-07-08T12:03:23;94374.84;;;31.92;28.51
39739;BME280;25422;48.286;8.484;2023-07-08T12:05:56;94373.16;;;32.52;28.30
39739;BME280;25422;48.286;8.484;2023-07-08T12:08:33;94377.88;;;32.04;27.83
39739;BME280;25422;48.286;8.484;2023-07-08T12:10:59;94378.03;;;31.66;28.72
39739;BME280;25422;48.286;8.484;2023-07-08T12:13:25;94376.06;;;31.86;29.66
39739;BME280;25422;48.286;8.484;2023-07-08T12:15:52;94377.16;;;32.40;27.88
39739;BME280;25422;48.286;8.484;2023-07-08T12:18:24;94374.63;;;32.72;27.11
39739;BME280;25422;48.286;8.484;2023-07-08T12:20:58;94380.56;;;32.74;26.56
39739;BME280;25422;48.286;8.484;2023-07-08T12:23:25;94383.00;;;32.48;28.45
39739;BME280;25422;48.286;8.484;2023-07-08T12:25:52;94373.56;;;32.45;27.89
39739;BME280;25422;48.286;8.484;2023-07-08T12:28:19;94367.94;;;32.92;28.33
39739;BME280;25422;48.286;8.484;2023-07-08T12:30:45;94374.06;;;33.20;27.16
39739;BME280;25422;48.286;8.484;2023-07-08T12:33:24;94378.00;;;32.91;26.59
39739;BME280;25422;48.286;8.484;2023-07-08T12:35:51;94377.78;;;33.47;25.97
39739;BME280;25422;48.286;8.484;2023-07-08T12:38:25;94383.03;;;33.75;26.20
39739;BME280;25422;48.286;8.484;2023-07-08T12:40:53;94384.31;;;34.09;25.67
39739;BME280;25422;48.286;8.484;2023-07-08T12:43:18;94381.63;;;33.09;26.28
39739;BME280;25422;48.286;8.484;2023-07-08T12:45:44;94383.09;;;33.30;25.83
39739;BME280;25422;48.286;8.484;2023-07-08T12:48:09;94378.03;;;33.68;25.57
39739;BME280;25422;48.286;8.484;2023-07-08T12:50:35;94374.81;;;34.29;24.52
39739;BME280;25422;48.286;8.484;2023-07-08T12:53:00;94376.69;;;34.86;24.27
39739;BME280;25422;48.286;8.484;2023-07-08T12:55:36;94383.84;;;34.07;25.10
39739;BME280;25422;48.286;8.484;2023-07-08T12:58:03;94375.69;;;35.61;23.72
39739;BME280;25422;48.286;8.484;2023-07-08T13:00:32;94368.50;;;35.65;24.02
39739;BME280;25422;48.286;8.484;2023-07-08T13:05:30;94367.59;;;35.35;24.38
39739;BME280;25422;48.286;8.484;2023-07-08T13:07:56;94371.69;;;35.67;23.66
39739;BME280;25422;48.286;8.484;2023-07-08T13:10:24;94370.50;;;35.94;23.70
39739;BME280;25422;48.286;8.484;2023-07-08T13:12:54;94365.13;;;34.45;26.01
39739;BME280;25422;48.286;8.484;2023-07-08T13:15:26;94377.38;;;32.44;27.68
39739;BME280;25422;48.286;8.484;2023-07-08T13:17:53;94376.78;;;33.20;26.78
39739;BME280;25422;48.286;8.484;2023-07-08T13:20:20;94384.06;;;33.34;26.85
39739;BME280;25422;48.286;8.484;2023-07-08T13:22:51;94381.19;;;33.84;25.31
39739;BME280;25422;48.286;8.484;2023-07-08T13:25:18;94380.88;;;35.10;23.82
39739;BME280;25422;48.286;8.484;2023-07-08T13:28:01;94371.59;;;35.11;23.95
39739;BME280;25422;48.286;8.484;2023-07-08T13:30:30;94381.09;;;33.21;26.17
39739;BME280;25422;48.286;8.484;2023-07-08T13:32:57;94375.66;;;32.99;25.99
39739;BME280;25422;48.286;8.484;2023-07-08T13:35:35;94376.38;;;32.90;28.00
39739;BME280;25422;48.286;8.484;2023-07-08T13:38:02;94378.41;;;33.75;26.37
39739;BME280;25422;48.286;8.484;2023-07-08T13:40:29;94376.16;;;33.46;25.85
39739;BME280;25422;48.286;8.484;2023-07-08T13:42:54;94374.72;;;32.67;26.39
39739;BME280;25422;48.286;8.484;2023-07-08T13:45:26;94373.03;;;31.87;29.00
39739;BME280;25422;48.286;8.484;2023-07-08T13:48:25;94370.72;;;31.34;29.77
39739;BME280;25422;48.286;8.484;2023-07-08T13:53:45;94369.47;;;30.74;30.18
39739;BME280;25422;48.286;8.484;2023-07-08T13:58:46;94370.47;;;30.16;31.63
39739;BME280;25422;48.286;8.484;2023-07-08T14:01:22;94361.16;;;30.03;30.86